Terminal Aerodrome Forecast
Issued by NWS

Home | Current Version | Previous Version | Text Only | Print | Product List | Glossary On
Versions: 1 2 3 4 5 6 7 8 9 10 11 12 13 14 15 16 17 18
000
FTUS46 KPDT 270520
TAFALW
TAF
KALW 270520Z 2706/2806 06006KT P6SM VCSH SCT100 BKN150
     FM270800 15006KT P6SM VCSH SCT060 BKN080
     FM271800 21005KT P6SM VCSH FEW050 BKN100=

USA.gov is the U.S. government's official web portal to all federal, state and local government web resources and services.